Elkton, Illinois
Current Conditions -  °F | °C
As of 12:15 AM on Monday 22 Dec 2014 (Local Time) from KSAR Reporting Station
Overcast Overcast  
Wind Chill: 32°   Ceiling: 6000
Heat Index: 40°   Visibility: 10mi
Dew Point: 31°   Wind: 12mph
Humidity: 71%   Direction: 130°SE
Pressure: 29.94"   Gusts: NA
Location:  38.2623°N, 89.5911°W
Report Text: KSAR 220615Z AUTO 13010KT 10SM BKN060 OVC075 04/M01 A2994 RMK AO2 T00421007
Loading
Personal Weather Stations






























Interactive Weather Map New forecast layout! Learn more

10-Day Weather Forecast

Advertisements
Track Severe Weather on mobile